< Cyclone 201303 2013 Season Cyclone 201305 >
Cyclone 201304 (Mitchell)
General InformationTrack Information on Google MapsDetailed Wind InformationList of All Images || ResourceGoogle EarthGE AnimationAtom FeedGeoJSON
Detalied Best Track (Time Zone = UTC)
Year Month Day Hour Lat. Long. Pressure (hPa) Wind (kt) Class Image Chart
2012 12 26 12 -13.3 116.2 1004 20 2 Image --
2012 12 26 18 -13.4 115.1 1004 20 2 Image --
2012 12 27 00 -13.4 114.0 1004 20 2 Image --
2012 12 27 06 -13.9 113.6 1003 20 2 Image --
2012 12 27 12 -14.3 113.2 1001 25 2 Image --
2012 12 27 16 -13.9 112.0 1002 25 2 Image --
2012 12 27 18 -14.7 112.9 1001 25 2 Image --
2012 12 28 00 -15.0 112.7 1001 25 2 Image --
2012 12 28 06 -15.3 112.5 1001 25 2 Image --
2012 12 28 12 -15.4 111.4 1000 30 2 Image --
2012 12 28 18 -16.2 111.1 1000 30 2 Image --
2012 12 29 00 -17.1 110.9 997 35 3 Image --
2012 12 29 06 -17.9 110.8 991 45 3 Image --
2012 12 29 12 -18.8 110.6 988 45 3 Image --
2012 12 29 18 -20.0 110.4 988 45 3 Image --
2012 12 30 00 -21.2 110.2 989 45 3 Image --
2012 12 30 06 -22.5 110.1 992 40 3 Image --
2012 12 30 12 -23.8 109.8 998 35 3 Image --
2012 12 30 18 -25.3 108.9 1004 25 2 Image --
2012 12 31 00 -26.7 108.1 1004 25 2 Image --
2012 12 31 06 -28.4 108.0 1004 25 2 Image --
2012 12 31 09 -29.2 108.2 1004 25 0 Image --
2012 12 31 12 -30.1 108.7 1004 25 2 Image --
2012 12 31 18 -30.8 110.0 1004 20 2 Image --
< Cyclone 201303 2013 Season Cyclone 201305 >

Help